sensor_id;sensor_type;location;lat;lon;timestamp;P1;durP1;ratioP1;P2;durP2;ratioP2
12760;SDS011;6444;49.742;6.114;2022-11-04T00:01:15;5.35;;;2.83;;
12760;SDS011;6444;49.742;6.114;2022-11-04T00:03:42;5.28;;;2.15;;
12760;SDS011;6444;49.742;6.114;2022-11-04T00:06:08;7.37;;;2.85;;
12760;SDS011;6444;49.742;6.114;2022-11-04T00:08:35;3.87;;;2.50;;
12760;SDS011;6444;49.742;6.114;2022-11-04T00:11:02;7.62;;;2.50;;
12760;SDS011;6444;49.742;6.114;2022-11-04T00:13:46;6.72;;;2.53;;
12760;SDS011;6444;49.742;6.114;2022-11-04T00:16:13;6.95;;;2.45;;
12760;SDS011;6444;49.742;6.114;2022-11-04T00:18:52;7.07;;;3.10;;
12760;SDS011;6444;49.742;6.114;2022-11-04T00:21:18;3.97;;;2.40;;
12760;SDS011;6444;49.742;6.114;2022-11-04T00:24:03;6.72;;;2.60;;
12760;SDS011;6444;49.742;6.114;2022-11-04T00:26:49;7.05;;;2.50;;
12760;SDS011;6444;49.742;6.114;2022-11-04T00:29:34;7.32;;;2.78;;
12760;SDS011;6444;49.742;6.114;2022-11-04T00:32:00;6.32;;;2.80;;
12760;SDS011;6444;49.742;6.114;2022-11-04T00:34:46;9.27;;;2.83;;
12760;SDS011;6444;49.742;6.114;2022-11-04T00:37:13;8.98;;;3.05;;
12760;SDS011;6444;49.742;6.114;2022-11-04T00:39:39;6.72;;;3.22;;
12760;SDS011;6444;49.742;6.114;2022-11-04T00:42:06;10.98;;;4.45;;
12760;SDS011;6444;49.742;6.114;2022-11-04T00:44:32;10.80;;;4.22;;
12760;SDS011;6444;49.742;6.114;2022-11-04T00:47:00;6.50;;;3.37;;
12760;SDS011;6444;49.742;6.114;2022-11-04T00:49:27;7.30;;;2.97;;
12760;SDS011;6444;49.742;6.114;2022-11-04T00:51:53;6.10;;;3.23;;
12760;SDS011;6444;49.742;6.114;2022-11-04T00:54:20;9.45;;;3.97;;
12760;SDS011;6444;49.742;6.114;2022-11-04T00:56:47;10.97;;;2.83;;
12760;SDS011;6444;49.742;6.114;2022-11-04T00:59:14;6.78;;;2.60;;
12760;SDS011;6444;49.742;6.114;2022-11-04T01:01:40;6.03;;;2.92;;
12760;SDS011;6444;49.742;6.114;2022-11-04T01:04:07;11.23;;;2.90;;
12760;SDS011;6444;49.742;6.114;2022-11-04T01:06:34;5.72;;;2.67;;
12760;SDS011;6444;49.742;6.114;2022-11-04T01:09:03;10.73;;;2.67;;
12760;SDS011;6444;49.742;6.114;2022-11-04T01:11:28;8.68;;;2.50;;
12760;SDS011;6444;49.742;6.114;2022-11-04T01:13:54;10.43;;;2.60;;
12760;SDS011;6444;49.742;6.114;2022-11-04T01:16:21;7.00;;;2.55;;
12760;SDS011;6444;49.742;6.114;2022-11-04T01:18:48;6.87;;;3.00;;
12760;SDS011;6444;49.742;6.114;2022-11-04T01:21:15;12.63;;;2.55;;
12760;SDS011;6444;49.742;6.114;2022-11-04T01:23:42;11.27;;;2.65;;
12760;SDS011;6444;49.742;6.114;2022-11-04T01:26:12;9.63;;;2.47;;
12760;SDS011;6444;49.742;6.114;2022-11-04T01:28:35;9.75;;;2.60;;
12760;SDS011;6444;49.742;6.114;2022-11-04T01:31:05;6.30;;;2.05;;
12760;SDS011;6444;49.742;6.114;2022-11-04T01:33:31;5.62;;;2.53;;
12760;SDS011;6444;49.742;6.114;2022-11-04T01:36:01;5.30;;;2.72;;
12760;SDS011;6444;49.742;6.114;2022-11-04T01:38:28;10.15;;;2.70;;
12760;SDS011;6444;49.742;6.114;2022-11-04T01:40:55;5.60;;;2.50;;
12760;SDS011;6444;49.742;6.114;2022-11-04T01:43:22;5.85;;;2.97;;
12760;SDS011;6444;49.742;6.114;2022-11-04T01:45:55;6.62;;;2.67;;
12760;SDS011;6444;49.742;6.114;2022-11-04T01:48:26;9.38;;;2.47;;
12760;SDS011;6444;49.742;6.114;2022-11-04T01:50:48;5.68;;;2.90;;
12760;SDS011;6444;49.742;6.114;2022-11-04T01:53:15;4.68;;;2.40;;
12760;SDS011;6444;49.742;6.114;2022-11-04T01:55:42;7.15;;;2.35;;
12760;SDS011;6444;49.742;6.114;2022-11-04T01:58:13;6.12;;;3.35;;
12760;SDS011;6444;49.742;6.114;2022-11-04T02:00:39;3.72;;;2.62;;
12760;SDS011;6444;49.742;6.114;2022-11-04T02:03:28;6.18;;;2.65;;
12760;SDS011;6444;49.742;6.114;2022-11-04T02:05:35;7.03;;;3.00;;
12760;SDS011;6444;49.742;6.114;2022-11-04T02:08:03;7.53;;;3.33;;
12760;SDS011;6444;49.742;6.114;2022-11-04T02:10:29;7.72;;;3.00;;
12760;SDS011;6444;49.742;6.114;2022-11-04T02:12:56;7.78;;;3.00;;
12760;SDS011;6444;49.742;6.114;2022-11-04T02:15:29;5.60;;;2.80;;
12760;SDS011;6444;49.742;6.114;2022-11-04T02:23:33;5.82;;;2.20;;
12760;SDS011;6444;49.742;6.114;2022-11-04T02:26:07;8.05;;;2.58;;
12760;SDS011;6444;49.742;6.114;2022-11-04T02:36:39;5.03;;;2.55;;
12760;SDS011;6444;49.742;6.114;2022-11-04T02:39:04;7.32;;;3.08;;
12760;SDS011;6444;49.742;6.114;2022-11-04T02:41:48;5.87;;;2.60;;
12760;SDS011;6444;49.742;6.114;2022-11-04T02:44:19;7.07;;;2.83;;
12760;SDS011;6444;49.742;6.114;2022-11-04T02:46:59;8.52;;;3.30;;
12760;SDS011;6444;49.742;6.114;2022-11-04T02:52:38;7.97;;;3.37;;
12760;SDS011;6444;49.742;6.114;2022-11-04T02:54:58;7.28;;;3.08;;
12760;SDS011;6444;49.742;6.114;2022-11-04T02:57:27;6.35;;;2.90;;
12760;SDS011;6444;49.742;6.114;2022-11-04T03:00:05;7.90;;;3.90;;
12760;SDS011;6444;49.742;6.114;2022-11-04T03:02:34;6.97;;;2.85;;
12760;SDS011;6444;49.742;6.114;2022-11-04T03:05:03;6.05;;;2.40;;
12760;SDS011;6444;49.742;6.114;2022-11-04T03:07:31;4.62;;;2.50;;
12760;SDS011;6444;49.742;6.114;2022-11-04T03:09:58;9.25;;;3.03;;
12760;SDS011;6444;49.742;6.114;2022-11-04T03:12:24;7.62;;;2.72;;
12760;SDS011;6444;49.742;6.114;2022-11-04T03:14:51;7.90;;;2.97;;
12760;SDS011;6444;49.742;6.114;2022-11-04T03:17:30;6.93;;;2.30;;
12760;SDS011;6444;49.742;6.114;2022-11-04T03:19:53;4.82;;;2.15;;
12760;SDS011;6444;49.742;6.114;2022-11-04T03:22:20;6.93;;;2.45;;
12760;SDS011;6444;49.742;6.114;2022-11-04T03:24:46;4.70;;;2.10;;
12760;SDS011;6444;49.742;6.114;2022-11-04T03:30:00;7.20;;;2.20;;
12760;SDS011;6444;49.742;6.114;2022-11-04T03:32:33;5.60;;;2.00;;
12760;SDS011;6444;49.742;6.114;2022-11-04T03:34:55;8.27;;;2.65;;
12760;SDS011;6444;49.742;6.114;2022-11-04T03:37:21;5.95;;;2.05;;
12760;SDS011;6444;49.742;6.114;2022-11-04T03:39:48;5.20;;;1.75;;
12760;SDS011;6444;49.742;6.114;2022-11-04T03:42:14;6.85;;;2.37;;
12760;SDS011;6444;49.742;6.114;2022-11-04T03:44:48;5.72;;;2.22;;
12760;SDS011;6444;49.742;6.114;2022-11-04T03:47:17;6.75;;;2.22;;
12760;SDS011;6444;49.742;6.114;2022-11-04T03:49:44;5.68;;;1.90;;
12760;SDS011;6444;49.742;6.114;2022-11-04T03:52:10;9.57;;;2.30;;
12760;SDS011;6444;49.742;6.114;2022-11-04T03:54:37;6.47;;;2.25;;
12760;SDS011;6444;49.742;6.114;2022-11-04T04:05:02;8.02;;;2.72;;
12760;SDS011;6444;49.742;6.114;2022-11-04T04:10:12;5.47;;;1.87;;
12760;SDS011;6444;49.742;6.114;2022-11-04T04:13:04;9.68;;;2.67;;
12760;SDS011;6444;49.742;6.114;2022-11-04T04:15:30;8.88;;;2.05;;
12760;SDS011;6444;49.742;6.114;2022-11-04T04:17:57;9.32;;;2.35;;
12760;SDS011;6444;49.742;6.114;2022-11-04T04:20:23;8.93;;;2.50;;
12760;SDS011;6444;49.742;6.114;2022-11-04T04:22:49;3.33;;;2.20;;
12760;SDS011;6444;49.742;6.114;2022-11-04T04:25:15;8.30;;;2.72;;
12760;SDS011;6444;49.742;6.114;2022-11-04T04:28:00;8.03;;;2.97;;
12760;SDS011;6444;49.742;6.114;2022-11-04T04:30:26;8.17;;;3.17;;
12760;SDS011;6444;49.742;6.114;2022-11-04T04:33:04;5.77;;;2.90;;
12760;SDS011;6444;49.742;6.114;2022-11-04T04:35:29;4.90;;;2.53;;
12760;SDS011;6444;49.742;6.114;2022-11-04T04:44:01;12.03;;;3.47;;
12760;SDS011;6444;49.742;6.114;2022-11-04T04:46:46;9.90;;;4.40;;
12760;SDS011;6444;49.742;6.114;2022-11-04T04:49:12;8.98;;;3.60;;
12760;SDS011;6444;49.742;6.114;2022-11-04T04:51:40;10.30;;;4.75;;
12760;SDS011;6444;49.742;6.114;2022-11-04T04:54:08;11.82;;;3.78;;
12760;SDS011;6444;49.742;6.114;2022-11-04T04:56:35;10.50;;;3.55;;
12760;SDS011;6444;49.742;6.114;2022-11-04T04:59:02;4.90;;;3.20;;
12760;SDS011;6444;49.742;6.114;2022-11-04T05:01:29;10.55;;;5.00;;
12760;SDS011;6444;49.742;6.114;2022-11-04T05:03:55;10.57;;;3.97;;
12760;SDS011;6444;49.742;6.114;2022-11-04T05:06:22;9.00;;;3.58;;
12760;SDS011;6444;49.742;6.114;2022-11-04T05:08:48;7.12;;;3.67;;
12760;SDS011;6444;49.742;6.114;2022-11-04T05:11:15;9.52;;;3.60;;
12760;SDS011;6444;49.742;6.114;2022-11-04T05:13:42;8.95;;;3.80;;
12760;SDS011;6444;49.742;6.114;2022-11-04T05:16:09;9.57;;;4.15;;
12760;SDS011;6444;49.742;6.114;2022-11-04T05:18:35;12.75;;;4.70;;
12760;SDS011;6444;49.742;6.114;2022-11-04T05:21:02;6.57;;;3.53;;
12760;SDS011;6444;49.742;6.114;2022-11-04T05:23:31;10.00;;;3.35;;
12760;SDS011;6444;49.742;6.114;2022-11-04T05:25:58;6.30;;;2.93;;
12760;SDS011;6444;49.742;6.114;2022-11-04T05:28:24;8.10;;;3.40;;
12760;SDS011;6444;49.742;6.114;2022-11-04T05:30:51;6.47;;;3.20;;
12760;SDS011;6444;49.742;6.114;2022-11-04T05:33:18;7.47;;;3.20;;
12760;SDS011;6444;49.742;6.114;2022-11-04T05:35:45;5.95;;;3.10;;
12760;SDS011;6444;49.742;6.114;2022-11-04T05:38:12;10.40;;;3.85;;
12760;SDS011;6444;49.742;6.114;2022-11-04T05:40:38;8.57;;;3.60;;
12760;SDS011;6444;49.742;6.114;2022-11-04T05:43:05;9.53;;;3.70;;
12760;SDS011;6444;49.742;6.114;2022-11-04T05:45:32;8.83;;;3.63;;
12760;SDS011;6444;49.742;6.114;2022-11-04T05:47:59;6.00;;;3.00;;
12760;SDS011;6444;49.742;6.114;2022-11-04T05:50:26;9.80;;;3.30;;
12760;SDS011;6444;49.742;6.114;2022-11-04T05:52:52;6.27;;;3.40;;
12760;SDS011;6444;49.742;6.114;2022-11-04T05:55:19;9.23;;;3.67;;
12760;SDS011;6444;49.742;6.114;2022-11-04T05:57:45;8.27;;;3.30;;
12760;SDS011;6444;49.742;6.114;2022-11-04T06:00:12;7.93;;;4.07;;
12760;SDS011;6444;49.742;6.114;2022-11-04T06:02:39;8.52;;;3.62;;
12760;SDS011;6444;49.742;6.114;2022-11-04T06:05:05;9.73;;;4.17;;
12760;SDS011;6444;49.742;6.114;2022-11-04T06:07:32;8.23;;;4.37;;
12760;SDS011;6444;49.742;6.114;2022-11-04T06:10:00;11.32;;;5.75;;
12760;SDS011;6444;49.742;6.114;2022-11-04T06:12:26;8.57;;;5.35;;
12760;SDS011;6444;49.742;6.114;2022-11-04T06:14:53;9.68;;;5.00;;
12760;SDS011;6444;49.742;6.114;2022-11-04T06:17:20;12.50;;;4.93;;
12760;SDS011;6444;49.742;6.114;2022-11-04T06:19:46;8.23;;;4.23;;
12760;SDS011;6444;49.742;6.114;2022-11-04T06:22:14;13.90;;;4.87;;
12760;SDS011;6444;49.742;6.114;2022-11-04T06:24:40;8.33;;;4.67;;
12760;SDS011;6444;49.742;6.114;2022-11-04T06:27:07;16.40;;;4.97;;
12760;SDS011;6444;49.742;6.114;2022-11-04T06:29:33;12.27;;;5.78;;
12760;SDS011;6444;49.742;6.114;2022-11-04T06:32:00;9.68;;;5.60;;
12760;SDS011;6444;49.742;6.114;2022-11-04T06:34:27;10.15;;;3.85;;
12760;SDS011;6444;49.742;6.114;2022-11-04T06:36:53;8.13;;;4.40;;
12760;SDS011;6444;49.742;6.114;2022-11-04T06:39:20;8.47;;;5.00;;
12760;SDS011;6444;49.742;6.114;2022-11-04T06:41:48;9.40;;;4.40;;
12760;SDS011;6444;49.742;6.114;2022-11-04T06:44:17;9.50;;;4.30;;
12760;SDS011;6444;49.742;6.114;2022-11-04T06:46:45;11.47;;;4.67;;
12760;SDS011;6444;49.742;6.114;2022-11-04T06:49:12;10.60;;;5.07;;
12760;SDS011;6444;49.742;6.114;2022-11-04T06:51:38;12.57;;;4.10;;
12760;SDS011;6444;49.742;6.114;2022-11-04T06:54:05;13.93;;;5.50;;
12760;SDS011;6444;49.742;6.114;2022-11-04T06:56:32;9.98;;;4.60;;
12760;SDS011;6444;49.742;6.114;2022-11-04T06:58:59;14.57;;;4.83;;
12760;SDS011;6444;49.742;6.114;2022-11-04T07:01:26;10.85;;;4.75;;
12760;SDS011;6444;49.742;6.114;2022-11-04T07:03:53;10.53;;;5.40;;
12760;SDS011;6444;49.742;6.114;2022-11-04T07:06:19;13.07;;;4.87;;
12760;SDS011;6444;49.742;6.114;2022-11-04T07:08:46;9.80;;;4.30;;
12760;SDS011;6444;49.742;6.114;2022-11-04T07:11:12;10.80;;;5.27;;
12760;SDS011;6444;49.742;6.114;2022-11-04T07:13:39;10.77;;;5.10;;
12760;SDS011;6444;49.742;6.114;2022-11-04T07:16:06;11.55;;;5.55;;
12760;SDS011;6444;49.742;6.114;2022-11-04T07:18:33;9.40;;;5.17;;
12760;SDS011;6444;49.742;6.114;2022-11-04T07:20:59;7.53;;;4.47;;
12760;SDS011;6444;49.742;6.114;2022-11-04T07:23:26;8.65;;;5.00;;
12760;SDS011;6444;49.742;6.114;2022-11-04T07:25:52;7.10;;;4.10;;
12760;SDS011;6444;49.742;6.114;2022-11-04T07:28:19;9.80;;;4.12;;
12760;SDS011;6444;49.742;6.114;2022-11-04T07:30:46;8.15;;;3.90;;
12760;SDS011;6444;49.742;6.114;2022-11-04T07:33:12;10.60;;;4.30;;
12760;SDS011;6444;49.742;6.114;2022-11-04T07:35:39;11.48;;;4.87;;
12760;SDS011;6444;49.742;6.114;2022-11-04T07:38:05;8.50;;;3.83;;
12760;SDS011;6444;49.742;6.114;2022-11-04T07:40:32;9.65;;;4.28;;
12760;SDS011;6444;49.742;6.114;2022-11-04T07:42:59;9.55;;;4.43;;
12760;SDS011;6444;49.742;6.114;2022-11-04T07:45:25;11.20;;;4.50;;
12760;SDS011;6444;49.742;6.114;2022-11-04T07:47:52;11.48;;;6.20;;
12760;SDS011;6444;49.742;6.114;2022-11-04T07:50:19;6.28;;;3.65;;
12760;SDS011;6444;49.742;6.114;2022-11-04T07:52:45;10.70;;;5.10;;
12760;SDS011;6444;49.742;6.114;2022-11-04T07:55:12;7.43;;;3.53;;
12760;SDS011;6444;49.742;6.114;2022-11-04T07:57:38;8.38;;;3.78;;
12760;SDS011;6444;49.742;6.114;2022-11-04T08:00:05;12.10;;;3.40;;
12760;SDS011;6444;49.742;6.114;2022-11-04T08:02:32;11.02;;;3.30;;
12760;SDS011;6444;49.742;6.114;2022-11-04T08:04:58;11.60;;;3.75;;
12760;SDS011;6444;49.742;6.114;2022-11-04T08:07:25;8.10;;;3.12;;
12760;SDS011;6444;49.742;6.114;2022-11-04T08:09:52;11.88;;;3.60;;
12760;SDS011;6444;49.742;6.114;2022-11-04T08:12:18;8.40;;;4.40;;
12760;SDS011;6444;49.742;6.114;2022-11-04T08:14:45;11.32;;;5.55;;
12760;SDS011;6444;49.742;6.114;2022-11-04T08:17:12;8.23;;;4.47;;
12760;SDS011;6444;49.742;6.114;2022-11-04T08:19:38;10.02;;;3.60;;
12760;SDS011;6444;49.742;6.114;2022-11-04T08:22:05;15.10;;;3.70;;
12760;SDS011;6444;49.742;6.114;2022-11-04T08:24:31;10.57;;;3.53;;
12760;SDS011;6444;49.742;6.114;2022-11-04T08:26:58;9.02;;;4.18;;
12760;SDS011;6444;49.742;6.114;2022-11-04T08:29:26;6.70;;;3.87;;
12760;SDS011;6444;49.742;6.114;2022-11-04T08:31:52;10.35;;;4.15;;
12760;SDS011;6444;49.742;6.114;2022-11-04T08:34:19;9.65;;;4.25;;
12760;SDS011;6444;49.742;6.114;2022-11-04T08:36:45;13.93;;;7.18;;
12760;SDS011;6444;49.742;6.114;2022-11-04T08:39:13;9.77;;;4.75;;
12760;SDS011;6444;49.742;6.114;2022-11-04T08:41:41;8.63;;;4.68;;
12760;SDS011;6444;49.742;6.114;2022-11-04T08:44:06;7.85;;;4.72;;
12760;SDS011;6444;49.742;6.114;2022-11-04T08:46:34;11.85;;;5.22;;
12760;SDS011;6444;49.742;6.114;2022-11-04T08:48:59;7.50;;;5.20;;
12760;SDS011;6444;49.742;6.114;2022-11-04T08:51:27;10.30;;;5.60;;
12760;SDS011;6444;49.742;6.114;2022-11-04T08:53:53;6.78;;;4.95;;
12760;SDS011;6444;49.742;6.114;2022-11-04T08:56:22;11.23;;;5.90;;
12760;SDS011;6444;49.742;6.114;2022-11-04T08:58:47;7.72;;;5.00;;
12760;SDS011;6444;49.742;6.114;2022-11-04T09:01:13;13.45;;;7.25;;
12760;SDS011;6444;49.742;6.114;2022-11-04T09:03:40;9.77;;;5.37;;
12760;SDS011;6444;49.742;6.114;2022-11-04T09:06:11;8.48;;;4.68;;
12760;SDS011;6444;49.742;6.114;2022-11-04T09:08:37;7.68;;;4.55;;
12760;SDS011;6444;49.742;6.114;2022-11-04T09:11:07;8.65;;;5.37;;
12760;SDS011;6444;49.742;6.114;2022-11-04T09:13:34;7.62;;;4.70;;
12760;SDS011;6444;49.742;6.114;2022-11-04T09:16:00;6.75;;;3.80;;
12760;SDS011;6444;49.742;6.114;2022-11-04T09:18:27;7.00;;;4.37;;
12760;SDS011;6444;49.742;6.114;2022-11-04T09:20:54;5.53;;;3.58;;
12760;SDS011;6444;49.742;6.114;2022-11-04T09:23:20;5.75;;;3.30;;
12760;SDS011;6444;49.742;6.114;2022-11-04T09:25:47;5.57;;;3.47;;
12760;SDS011;6444;49.742;6.114;2022-11-04T09:28:14;5.22;;;3.17;;
12760;SDS011;6444;49.742;6.114;2022-11-04T09:30:41;6.90;;;2.70;;
12760;SDS011;6444;49.742;6.114;2022-11-04T09:33:07;5.80;;;2.62;;
12760;SDS011;6444;49.742;6.114;2022-11-04T09:35:34;3.45;;;2.30;;
12760;SDS011;6444;49.742;6.114;2022-11-04T09:38:01;5.05;;;2.30;;
12760;SDS011;6444;49.742;6.114;2022-11-04T09:40:28;3.55;;;2.65;;
12760;SDS011;6444;49.742;6.114;2022-11-04T09:45:49;3.10;;;2.50;;
12760;SDS011;6444;49.742;6.114;2022-11-04T09:48:24;8.15;;;2.75;;
12760;SDS011;6444;49.742;6.114;2022-11-04T09:50:53;6.25;;;2.78;;
12760;SDS011;6444;49.742;6.114;2022-11-04T09:56:10;6.37;;;3.10;;
12760;SDS011;6444;49.742;6.114;2022-11-04T09:58:42;5.35;;;3.17;;
12760;SDS011;6444;49.742;6.114;2022-11-04T10:01:12;4.80;;;3.22;;
12760;SDS011;6444;49.742;6.114;2022-11-04T10:03:41;9.68;;;3.90;;
12760;SDS011;6444;49.742;6.114;2022-11-04T10:06:26;8.57;;;3.30;;
12760;SDS011;6444;49.742;6.114;2022-11-04T10:09:02;6.65;;;3.28;;
12760;SDS011;6444;49.742;6.114;2022-11-04T10:17:05;6.20;;;2.85;;
12760;SDS011;6444;49.742;6.114;2022-11-04T10:19:39;8.10;;;3.15;;
12760;SDS011;6444;49.742;6.114;2022-11-04T10:22:08;6.53;;;2.80;;
12760;SDS011;6444;49.742;6.114;2022-11-04T10:27:28;6.25;;;3.75;;
12760;SDS011;6444;49.742;6.114;2022-11-04T10:29:56;12.05;;;7.55;;
12760;SDS011;6444;49.742;6.114;2022-11-04T10:32:23;9.02;;;4.53;;
12760;SDS011;6444;49.742;6.114;2022-11-04T10:35:03;8.05;;;6.07;;
12760;SDS011;6444;49.742;6.114;2022-11-04T10:37:32;3.80;;;3.10;;
12760;SDS011;6444;49.742;6.114;2022-11-04T10:40:06;5.57;;;2.97;;
12760;SDS011;6444;49.742;6.114;2022-11-04T10:42:31;4.90;;;3.15;;
12760;SDS011;6444;49.742;6.114;2022-11-04T10:44:58;3.75;;;2.87;;
12760;SDS011;6444;49.742;6.114;2022-11-04T10:47:30;5.35;;;2.92;;
12760;SDS011;6444;49.742;6.114;2022-11-04T10:50:29;5.18;;;2.85;;
12760;SDS011;6444;49.742;6.114;2022-11-04T10:53:22;9.45;;;3.60;;
12760;SDS011;6444;49.742;6.114;2022-11-04T10:55:55;5.50;;;2.53;;
12760;SDS011;6444;49.742;6.114;2022-11-04T10:58:41;4.68;;;2.75;;
12760;SDS011;6444;49.742;6.114;2022-11-04T11:03:53;4.35;;;2.50;;
12760;SDS011;6444;49.742;6.114;2022-11-04T11:06:22;4.60;;;2.58;;
12760;SDS011;6444;49.742;6.114;2022-11-04T11:08:56;4.62;;;2.25;;
12760;SDS011;6444;49.742;6.114;2022-11-04T11:14:00;3.65;;;2.50;;
12760;SDS011;6444;49.742;6.114;2022-11-04T11:16:27;3.72;;;1.77;;
12760;SDS011;6444;49.742;6.114;2022-11-04T11:19:07;3.78;;;1.92;;
12760;SDS011;6444;49.742;6.114;2022-11-04T11:21:40;2.90;;;2.03;;
12760;SDS011;6444;49.742;6.114;2022-11-04T11:24:00;2.50;;;1.70;;
12760;SDS011;6444;49.742;6.114;2022-11-04T11:26:29;5.30;;;2.40;;
12760;SDS011;6444;49.742;6.114;2022-11-04T11:28:56;4.50;;;2.42;;
12760;SDS011;6444;49.742;6.114;2022-11-04T11:31:22;3.75;;;2.58;;
12760;SDS011;6444;49.742;6.114;2022-11-04T11:33:50;5.55;;;3.08;;
12760;SDS011;6444;49.742;6.114;2022-11-04T11:36:22;9.27;;;6.32;;
12760;SDS011;6444;49.742;6.114;2022-11-04T11:41:29;4.25;;;2.55;;
12760;SDS011;6444;49.742;6.114;2022-11-04T11:44:17;4.12;;;1.98;;
12760;SDS011;6444;49.742;6.114;2022-11-04T11:46:52;4.20;;;2.00;;
12760;SDS011;6444;49.742;6.114;2022-11-04T11:49:22;2.75;;;1.90;;
12760;SDS011;6444;49.742;6.114;2022-11-04T11:51:47;3.30;;;1.95;;
12760;SDS011;6444;49.742;6.114;2022-11-04T11:54:15;4.05;;;2.20;;
12760;SDS011;6444;49.742;6.114;2022-11-04T11:56:49;7.12;;;3.45;;
12760;SDS011;6444;49.742;6.114;2022-11-04T11:59:17;3.97;;;2.60;;
12760;SDS011;6444;49.742;6.114;2022-11-04T12:02:00;3.53;;;2.42;;
12760;SDS011;6444;49.742;6.114;2022-11-04T12:04:41;3.72;;;3.05;;
12760;SDS011;6444;49.742;6.114;2022-11-04T12:07:29;4.85;;;2.62;;
12760;SDS011;6444;49.742;6.114;2022-11-04T12:10:19;4.60;;;3.37;;
12760;SDS011;6444;49.742;6.114;2022-11-04T12:21:05;5.55;;;3.47;;
12760;SDS011;6444;49.742;6.114;2022-11-04T12:28:52;4.37;;;2.83;;
12760;SDS011;6444;49.742;6.114;2022-11-04T12:41:57;5.32;;;2.60;;
12760;SDS011;6444;49.742;6.114;2022-11-04T12:44:35;3.80;;;2.33;;
12760;SDS011;6444;49.742;6.114;2022-11-04T12:47:02;3.10;;;2.03;;
12760;SDS011;6444;49.742;6.114;2022-11-04T12:49:35;4.37;;;1.80;;
12760;SDS011;6444;49.742;6.114;2022-11-04T12:52:14;4.20;;;1.90;;
12760;SDS011;6444;49.742;6.114;2022-11-04T12:57:41;2.90;;;1.80;;
12760;SDS011;6444;49.742;6.114;2022-11-04T13:00:09;2.22;;;1.77;;
12760;SDS011;6444;49.742;6.114;2022-11-04T13:02:55;4.35;;;2.10;;
12760;SDS011;6444;49.742;6.114;2022-11-04T13:07:56;2.90;;;1.80;;
12760;SDS011;6444;49.742;6.114;2022-11-04T13:10:24;4.90;;;2.43;;
12760;SDS011;6444;49.742;6.114;2022-11-04T13:12:48;3.78;;;1.50;;
12760;SDS011;6444;49.742;6.114;2022-11-04T13:15:19;3.05;;;1.73;;
12760;SDS011;6444;49.742;6.114;2022-11-04T13:17:53;4.90;;;1.70;;
12760;SDS011;6444;49.742;6.114;2022-11-04T13:20:23;4.15;;;1.67;;
12760;SDS011;6444;49.742;6.114;2022-11-04T13:22:59;2.47;;;1.00;;
12760;SDS011;6444;49.742;6.114;2022-11-04T13:27:54;3.78;;;1.27;;
12760;SDS011;6444;49.742;6.114;2022-11-04T13:30:22;4.43;;;1.20;;
12760;SDS011;6444;49.742;6.114;2022-11-04T13:33:13;3.40;;;1.40;;
12760;SDS011;6444;49.742;6.114;2022-11-04T13:35:48;1.50;;;1.40;;
12760;SDS011;6444;49.742;6.114;2022-11-04T13:38:24;2.53;;;1.10;;
12760;SDS011;6444;49.742;6.114;2022-11-04T13:41:15;3.00;;;1.20;;
12760;SDS011;6444;49.742;6.114;2022-11-04T13:43:37;2.53;;;1.40;;
12760;SDS011;6444;49.742;6.114;2022-11-04T13:48:33;3.62;;;1.50;;
12760;SDS011;6444;49.742;6.114;2022-11-04T13:51:04;4.85;;;1.75;;
12760;SDS011;6444;49.742;6.114;2022-11-04T13:53:43;3.60;;;1.62;;
12760;SDS011;6444;49.742;6.114;2022-11-04T13:56:05;5.05;;;1.73;;
12760;SDS011;6444;49.742;6.114;2022-11-04T13:58:33;1.52;;;1.33;;
12760;SDS011;6444;49.742;6.114;2022-11-04T14:01:13;2.62;;;1.12;;
12760;SDS011;6444;49.742;6.114;2022-11-04T14:03:39;1.42;;;1.20;;
12760;SDS011;6444;49.742;6.114;2022-11-04T14:06:06;2.35;;;1.00;;
12760;SDS011;6444;49.742;6.114;2022-11-04T14:08:31;3.17;;;1.35;;
12760;SDS011;6444;49.742;6.114;2022-11-04T14:10:59;1.45;;;1.30;;
12760;SDS011;6444;49.742;6.114;2022-11-04T14:16:00;11.77;;;4.47;;
12760;SDS011;6444;49.742;6.114;2022-11-04T14:18:27;9.98;;;5.40;;
12760;SDS011;6444;49.742;6.114;2022-11-04T14:21:03;8.40;;;4.43;;
12760;SDS011;6444;49.742;6.114;2022-11-04T14:23:28;9.32;;;3.72;;
12760;SDS011;6444;49.742;6.114;2022-11-04T14:25:58;4.72;;;2.87;;
12760;SDS011;6444;49.742;6.114;2022-11-04T14:28:25;5.62;;;2.40;;
12760;SDS011;6444;49.742;6.114;2022-11-04T14:30:51;4.07;;;2.12;;
12760;SDS011;6444;49.742;6.114;2022-11-04T14:33:35;3.30;;;1.92;;
12760;SDS011;6444;49.742;6.114;2022-11-04T14:38:56;1.58;;;1.42;;
12760;SDS011;6444;49.742;6.114;2022-11-04T14:43:56;4.93;;;2.53;;
12760;SDS011;6444;49.742;6.114;2022-11-04T14:46:22;1.58;;;1.08;;
12760;SDS011;6444;49.742;6.114;2022-11-04T14:48:55;3.15;;;1.62;;
12760;SDS011;6444;49.742;6.114;2022-11-04T14:51:29;3.12;;;1.98;;
12760;SDS011;6444;49.742;6.114;2022-11-04T14:54:03;1.45;;;1.33;;
12760;SDS011;6444;49.742;6.114;2022-11-04T14:56:34;3.05;;;1.27;;
12760;SDS011;6444;49.742;6.114;2022-11-04T14:59:06;1.55;;;1.40;;
12760;SDS011;6444;49.742;6.114;2022-11-04T15:01:36;3.20;;;1.42;;
12760;SDS011;6444;49.742;6.114;2022-11-04T15:04:06;1.65;;;1.15;;
12760;SDS011;6444;49.742;6.114;2022-11-04T15:06:29;3.30;;;1.45;;
12760;SDS011;6444;49.742;6.114;2022-11-04T15:11:55;1.40;;;1.30;;
12760;SDS011;6444;49.742;6.114;2022-11-04T15:14:35;2.10;;;1.60;;
12760;SDS011;6444;49.742;6.114;2022-11-04T15:17:02;3.05;;;1.37;;
12760;SDS011;6444;49.742;6.114;2022-11-04T15:19:35;2.87;;;1.58;;
12760;SDS011;6444;49.742;6.114;2022-11-04T15:21:58;2.47;;;1.35;;
12760;SDS011;6444;49.742;6.114;2022-11-04T15:24:25;1.35;;;1.25;;
12760;SDS011;6444;49.742;6.114;2022-11-04T15:26:53;2.62;;;1.30;;
12760;SDS011;6444;49.742;6.114;2022-11-04T15:29:20;1.45;;;1.20;;
12760;SDS011;6444;49.742;6.114;2022-11-04T15:31:55;2.05;;;1.48;;
12760;SDS011;6444;49.742;6.114;2022-11-04T15:34:21;2.05;;;1.20;;
12760;SDS011;6444;49.742;6.114;2022-11-04T15:36:47;1.27;;;1.20;;
12760;SDS011;6444;49.742;6.114;2022-11-04T15:39:24;1.92;;;1.10;;
12760;SDS011;6444;49.742;6.114;2022-11-04T15:41:48;3.15;;;1.40;;
12760;SDS011;6444;49.742;6.114;2022-11-04T15:44:33;1.40;;;1.20;;
12760;SDS011;6444;49.742;6.114;2022-11-04T15:49:43;2.05;;;1.15;;
12760;SDS011;6444;49.742;6.114;2022-11-04T15:52:14;6.43;;;1.60;;
12760;SDS011;6444;49.742;6.114;2022-11-04T15:54:37;1.42;;;1.33;;
12760;SDS011;6444;49.742;6.114;2022-11-04T15:57:04;2.65;;;2.05;;
12760;SDS011;6444;49.742;6.114;2022-11-04T15:59:48;3.97;;;2.37;;
12760;SDS011;6444;49.742;6.114;2022-11-04T16:02:19;4.75;;;2.70;;
12760;SDS011;6444;49.742;6.114;2022-11-04T16:04:41;7.15;;;2.65;;
12760;SDS011;6444;49.742;6.114;2022-11-04T16:14:55;4.70;;;3.58;;
12760;SDS011;6444;49.742;6.114;2022-11-04T16:17:21;5.55;;;2.70;;
12760;SDS011;6444;49.742;6.114;2022-11-04T16:19:49;4.62;;;2.03;;
12760;SDS011;6444;49.742;6.114;2022-11-04T16:22:19;6.22;;;3.25;;
12760;SDS011;6444;49.742;6.114;2022-11-04T16:24:44;7.25;;;3.37;;
12760;SDS011;6444;49.742;6.114;2022-11-04T16:27:12;3.33;;;2.12;;
12760;SDS011;6444;49.742;6.114;2022-11-04T16:29:37;3.00;;;2.10;;
12760;SDS011;6444;49.742;6.114;2022-11-04T16:32:24;3.92;;;2.08;;
12760;SDS011;6444;49.742;6.114;2022-11-04T16:34:53;2.53;;;2.00;;
12760;SDS011;6444;49.742;6.114;2022-11-04T16:37:18;2.93;;;1.73;;
12760;SDS011;6444;49.742;6.114;2022-11-04T16:39:45;27.60;;;23.33;;
12760;SDS011;6444;49.742;6.114;2022-11-04T16:42:12;21.75;;;18.05;;
12760;SDS011;6444;49.742;6.114;2022-11-04T16:44:38;4.65;;;2.97;;
12760;SDS011;6444;49.742;6.114;2022-11-04T16:47:05;6.97;;;2.60;;
12760;SDS011;6444;49.742;6.114;2022-11-04T16:49:32;1.83;;;1.65;;
12760;SDS011;6444;49.742;6.114;2022-11-04T16:52:02;2.17;;;1.70;;
12760;SDS011;6444;49.742;6.114;2022-11-04T16:54:28;2.70;;;2.00;;
12760;SDS011;6444;49.742;6.114;2022-11-04T16:56:55;3.62;;;1.62;;
12760;SDS011;6444;49.742;6.114;2022-11-04T16:59:22;2.08;;;1.75;;
12760;SDS011;6444;49.742;6.114;2022-11-04T17:01:48;2.80;;;2.03;;
12760;SDS011;6444;49.742;6.114;2022-11-04T17:04:16;3.70;;;1.65;;
12760;SDS011;6444;49.742;6.114;2022-11-04T17:06:42;5.20;;;1.60;;